createdAt,value
2023-04-30T00:00:24.129Z,17.35
2023-04-30T00:01:25.152Z,17.32
2023-04-30T00:02:23.441Z,17.33
2023-04-30T00:03:23.593Z,17.32
2023-04-30T00:04:23.806Z,17.32
2023-04-30T00:05:23.835Z,17.31
2023-04-30T00:06:24.666Z,17.29
2023-04-30T00:07:23.415Z,17.28
2023-04-30T00:08:23.096Z,17.25
2023-04-30T00:09:23.676Z,17.22
2023-04-30T00:10:23.610Z,17.21
2023-04-30T00:11:23.224Z,17.20
2023-04-30T00:12:23.935Z,17.20
2023-04-30T00:13:23.540Z,17.19
2023-04-30T00:14:23.228Z,17.18
2023-04-30T00:15:23.801Z,17.17
2023-04-30T00:16:23.326Z,17.14
2023-04-30T00:17:23.474Z,17.15
2023-04-30T00:18:23.206Z,17.14
2023-04-30T00:19:23.359Z,17.09
2023-04-30T00:20:23.080Z,17.11
2023-04-30T00:21:23.377Z,17.06
2023-04-30T00:22:23.113Z,17.08
2023-04-30T00:23:23.286Z,17.06
2023-04-30T00:24:23.460Z,17.03
2023-04-30T00:25:22.973Z,17.04
2023-04-30T00:26:23.321Z,17.01
2023-04-30T00:27:23.750Z,16.98
2023-04-30T00:28:23.397Z,16.97
2023-04-30T00:29:23.465Z,16.97
2023-04-30T00:30:23.039Z,16.94
2023-04-30T00:31:22.984Z,16.95
2023-04-30T00:32:23.529Z,16.93
2023-04-30T00:33:23.037Z,16.91
2023-04-30T00:34:23.176Z,16.87
2023-04-30T00:35:23.529Z,16.86
2023-04-30T00:36:23.094Z,16.82
2023-04-30T00:37:23.552Z,16.81
2023-04-30T00:38:28.183Z,16.80
2023-04-30T00:39:23.706Z,16.78
2023-04-30T00:40:23.366Z,16.79
2023-04-30T00:41:23.490Z,16.75
2023-04-30T00:42:22.975Z,16.75
2023-04-30T00:43:23.271Z,16.70
2023-04-30T00:44:23.563Z,16.70
2023-04-30T00:45:23.426Z,16.69
2023-04-30T00:46:23.380Z,16.68
2023-04-30T00:47:23.953Z,16.67
2023-04-30T00:48:23.613Z,16.64
2023-04-30T00:49:23.090Z,16.60
2023-04-30T00:50:23.789Z,16.57
2023-04-30T00:51:23.397Z,16.54
2023-04-30T00:52:22.944Z,16.53
2023-04-30T00:53:23.086Z,16.51
2023-04-30T00:54:23.154Z,16.48
2023-04-30T00:55:23.809Z,16.45
2023-04-30T00:56:23.282Z,16.43
2023-04-30T00:57:23.675Z,16.42
2023-04-30T00:58:23.427Z,16.39
2023-04-30T00:59:23.191Z,16.38
2023-04-30T01:00:24.730Z,16.34
2023-04-30T01:01:23.491Z,16.32
2023-04-30T01:02:23.312Z,16.29
2023-04-30T01:03:23.268Z,16.28
2023-04-30T01:04:23.306Z,16.26
2023-04-30T01:05:23.090Z,16.27
2023-04-30T01:06:23.826Z,16.24
2023-04-30T01:07:23.658Z,16.20
2023-04-30T01:08:23.164Z,16.20
2023-04-30T01:09:23.699Z,16.17
2023-04-30T01:10:23.242Z,16.14
2023-04-30T01:11:23.638Z,16.15
2023-04-30T01:12:23.364Z,16.13
2023-04-30T01:13:23.076Z,16.12
2023-04-30T01:14:23.809Z,16.11
2023-04-30T01:15:23.674Z,16.11
2023-04-30T01:16:23.397Z,16.08
2023-04-30T01:17:23.015Z,16.07
2023-04-30T01:18:23.635Z,16.05
2023-04-30T01:19:23.392Z,16.03
2023-04-30T01:20:23.384Z,16.00
2023-04-30T01:21:22.917Z,16.01
2023-04-30T01:22:23.178Z,16
2023-04-30T01:23:23.673Z,15.98
2023-04-30T01:24:23.133Z,15.97
2023-04-30T01:25:23.661Z,15.97
2023-04-30T01:26:23.106Z,15.94
2023-04-30T01:27:23.325Z,15.93
2023-04-30T01:28:23.569Z,15.90
2023-04-30T01:29:22.944Z,15.89
2023-04-30T01:30:23.732Z,15.87
2023-04-30T01:31:23.254Z,15.85
2023-04-30T01:32:23.770Z,15.84
2023-04-30T01:33:23.588Z,15.81
2023-04-30T01:34:23.279Z,15.79
2023-04-30T01:35:23.789Z,15.76
2023-04-30T01:36:23.256Z,15.75
2023-04-30T01:37:23.354Z,15.74
2023-04-30T01:38:23.594Z,15.73
2023-04-30T01:39:22.949Z,15.72
2023-04-30T01:40:23.871Z,15.71
2023-04-30T01:41:23.388Z,15.68
2023-04-30T01:42:22.912Z,15.67
2023-04-30T01:43:23.427Z,15.67
2023-04-30T01:44:22.950Z,15.65
2023-04-30T01:45:23.240Z,15.63
2023-04-30T01:46:23.524Z,15.61
2023-04-30T01:47:23.453Z,15.60
2023-04-30T01:48:23.214Z,15.57
2023-04-30T01:49:23.582Z,15.57
2023-04-30T01:50:23.276Z,15.56
2023-04-30T01:51:23.013Z,15.56
2023-04-30T01:52:23.555Z,15.55
2023-04-30T01:53:23.432Z,15.52
2023-04-30T01:54:23.237Z,15.52
2023-04-30T01:55:23.664Z,15.51
2023-04-30T01:56:23.375Z,15.49
2023-04-30T01:57:22.989Z,15.48
2023-04-30T01:58:23.671Z,15.46
2023-04-30T01:59:23.558Z,15.46
2023-04-30T02:00:24.397Z,15.44
2023-04-30T02:01:23.408Z,15.43
2023-04-30T02:02:23.457Z,15.40
2023-04-30T02:03:23.608Z,15.43
2023-04-30T02:04:23.492Z,15.39
2023-04-30T02:05:23.487Z,15.36
2023-04-30T02:06:23.140Z,15.35
2023-04-30T02:07:23.279Z,15.32
2023-04-30T02:08:23.715Z,15.28
2023-04-30T02:09:23.534Z,15.27
2023-04-30T02:10:23.393Z,15.27
2023-04-30T02:11:23.007Z,15.26
2023-04-30T02:12:23.514Z,15.23
2023-04-30T02:13:23.349Z,15.22
2023-04-30T02:14:23.075Z,15.22
2023-04-30T02:15:23.734Z,15.19
2023-04-30T02:16:23.272Z,15.15
2023-04-30T02:17:23.260Z,15.13
2023-04-30T02:18:23.792Z,15.11
2023-04-30T02:19:23.314Z,15.10
2023-04-30T02:20:23.629Z,15.08
2023-04-30T02:21:23.273Z,15.06
2023-04-30T02:22:23.689Z,15.04
2023-04-30T02:23:23.218Z,15.03
2023-04-30T02:24:23.854Z,15.02
2023-04-30T02:25:24.046Z,15.00
2023-04-30T02:26:23.057Z,15.00
2023-04-30T02:27:23.440Z,14.98
2023-04-30T02:28:23.019Z,14.96
2023-04-30T02:29:23.420Z,14.96
2023-04-30T02:30:23.147Z,14.94
2023-04-30T02:31:23.382Z,14.90
2023-04-30T02:32:23.160Z,14.89
2023-04-30T02:33:23.684Z,14.89
2023-04-30T02:34:23.269Z,14.85
2023-04-30T02:35:23.692Z,14.82
2023-04-30T02:36:23.283Z,14.83
2023-04-30T02:37:23.397Z,14.81
2023-04-30T02:38:23.367Z,14.82
2023-04-30T02:39:23.716Z,14.81
2023-04-30T02:40:23.555Z,14.77
2023-04-30T02:41:23.218Z,14.77
2023-04-30T02:42:23.455Z,14.76
2023-04-30T02:43:23.047Z,14.76
2023-04-30T02:44:23.346Z,14.76
2023-04-30T02:45:24.218Z,14.76
2023-04-30T02:46:23.784Z,14.76
2023-04-30T02:47:23.317Z,14.77
2023-04-30T02:48:22.908Z,14.77
2023-04-30T02:49:23.302Z,14.77
2023-04-30T02:50:23.169Z,14.78
2023-04-30T02:51:23.615Z,14.77
2023-04-30T02:52:23.188Z,14.78
2023-04-30T02:53:23.603Z,14.75
2023-04-30T02:54:23.307Z,14.75
2023-04-30T02:55:23.401Z,14.73
2023-04-30T02:56:23.585Z,14.72
2023-04-30T02:57:23.012Z,14.75
2023-04-30T02:58:23.136Z,14.72
2023-04-30T02:59:23.222Z,14.69
2023-04-30T03:00:24.490Z,14.69
2023-04-30T03:01:23.304Z,14.67
2023-04-30T03:02:23.234Z,14.63
2023-04-30T03:03:27.993Z,14.61
2023-04-30T03:04:23.454Z,14.59
2023-04-30T03:05:23.124Z,14.60
2023-04-30T03:06:23.663Z,14.56
2023-04-30T03:07:23.311Z,14.5
2023-04-30T03:08:23.465Z,14.48
2023-04-30T03:09:22.979Z,14.48
2023-04-30T03:10:23.515Z,14.45
2023-04-30T03:11:31.130Z,14.43
2023-04-30T03:12:23.641Z,14.43
2023-04-30T03:13:23.007Z,14.39
2023-04-30T03:14:23.266Z,14.37
2023-04-30T03:15:23.846Z,14.36
2023-04-30T03:16:23.446Z,14.33
2023-04-30T03:17:23.413Z,14.31
2023-04-30T03:18:23.103Z,14.32
2023-04-30T03:19:23.451Z,14.30
2023-04-30T03:20:23.403Z,14.28
2023-04-30T03:21:23.127Z,14.27
2023-04-30T03:22:23.531Z,14.28
2023-04-30T03:23:23.200Z,14.28
2023-04-30T03:24:23.544Z,14.30
2023-04-30T03:25:23.248Z,14.28
2023-04-30T03:26:23.371Z,14.28
2023-04-30T03:27:23.389Z,14.27
2023-04-30T03:28:23.473Z,14.26
2023-04-30T03:29:22.919Z,14.24
2023-04-30T03:30:23.688Z,14.25
2023-04-30T03:31:23.309Z,14.23
2023-04-30T03:32:23.050Z,14.22
2023-04-30T03:33:23.416Z,14.21
2023-04-30T03:34:23.064Z,14.19
2023-04-30T03:35:23.443Z,14.18
2023-04-30T03:36:23.285Z,14.17
2023-04-30T03:37:23.439Z,14.17
2023-04-30T03:38:23.418Z,14.12
2023-04-30T03:39:23.031Z,14.12
2023-04-30T03:40:23.718Z,14.12
2023-04-30T03:41:23.393Z,14.10
2023-04-30T03:42:23.052Z,14.10
2023-04-30T03:43:23.583Z,14.11
2023-04-30T03:44:23.185Z,14.07
2023-04-30T03:45:23.929Z,14.06
2023-04-30T03:46:23.546Z,14.05
2023-04-30T03:47:23.468Z,14.03
2023-04-30T03:48:23.080Z,14.01
2023-04-30T03:49:23.282Z,13.97
2023-04-30T03:50:23.975Z,13.94
2023-04-30T03:51:23.347Z,13.94
2023-04-30T03:52:22.828Z,13.89
2023-04-30T03:53:23.011Z,13.89
2023-04-30T03:54:23.364Z,13.87
2023-04-30T03:55:23.605Z,13.87
2023-04-30T03:56:23.104Z,13.84
2023-04-30T03:57:23.492Z,13.83
2023-04-30T03:58:23.398Z,13.82
2023-04-30T03:59:23.559Z,13.79
2023-04-30T04:00:24.436Z,13.77
2023-04-30T04:01:23.524Z,13.75
2023-04-30T04:02:23.547Z,13.73
2023-04-30T04:03:23.304Z,13.72
2023-04-30T04:04:22.936Z,13.72
2023-04-30T04:05:23.679Z,13.69
2023-04-30T04:06:23.444Z,13.67
2023-04-30T04:07:23.154Z,13.66
2023-04-30T04:08:23.561Z,13.63
2023-04-30T04:09:24.066Z,13.62
2023-04-30T04:10:24.282Z,13.60
2023-04-30T04:11:22.969Z,13.58
2023-04-30T04:12:23.369Z,13.56
2023-04-30T04:13:23.017Z,13.56
2023-04-30T04:14:23.636Z,13.54
2023-04-30T04:15:23.667Z,13.55
2023-04-30T04:16:23.110Z,13.56
2023-04-30T04:17:23.155Z,13.55
2023-04-30T04:18:23.135Z,13.53
2023-04-30T04:19:23.672Z,13.52
2023-04-30T04:20:23.207Z,13.51
2023-04-30T04:21:23.680Z,13.51
2023-04-30T04:22:23.355Z,13.49
2023-04-30T04:23:23.364Z,13.49
2023-04-30T04:24:23.310Z,13.48
2023-04-30T04:25:23.882Z,13.52
2023-04-30T04:26:23.569Z,13.51
2023-04-30T04:27:23.368Z,13.52
2023-04-30T04:28:23.125Z,13.51
2023-04-30T04:29:23.633Z,13.52
2023-04-30T04:30:23.700Z,13.52
2023-04-30T04:31:23.251Z,13.55
2023-04-30T04:32:23.319Z,13.55
2023-04-30T04:33:23.227Z,13.56
2023-04-30T04:34:23.683Z,13.56
2023-04-30T04:35:23.746Z,13.53
2023-04-30T04:36:23.330Z,13.56
2023-04-30T04:37:23.846Z,13.57
2023-04-30T04:38:23.270Z,13.57
2023-04-30T04:39:23.646Z,13.56
2023-04-30T04:40:23.447Z,13.57
2023-04-30T04:41:23.248Z,13.59
2023-04-30T04:42:23.732Z,13.57
2023-04-30T04:43:23.079Z,13.58
2023-04-30T04:44:23.508Z,13.60
2023-04-30T04:45:23.279Z,13.60
2023-04-30T04:46:23.885Z,13.61
2023-04-30T04:47:24.061Z,13.61
2023-04-30T04:48:23.422Z,13.60
2023-04-30T04:49:23.392Z,13.62
2023-04-30T04:50:23.057Z,13.60
2023-04-30T04:51:23.739Z,13.61
2023-04-30T04:52:23.643Z,13.62
2023-04-30T04:53:23.125Z,13.62
2023-04-30T04:54:23.721Z,13.63
2023-04-30T04:55:23.571Z,13.64
2023-04-30T04:56:23.365Z,13.68
2023-04-30T04:57:23.312Z,13.69
2023-04-30T04:58:23.082Z,13.71
2023-04-30T04:59:23.318Z,13.77
2023-04-30T05:00:24.788Z,13.78
2023-04-30T05:01:23.550Z,13.82
2023-04-30T05:02:23.634Z,13.86
2023-04-30T05:03:23.532Z,13.88
2023-04-30T05:04:23.534Z,13.89
2023-04-30T05:05:23.174Z,13.93
2023-04-30T05:06:23.626Z,13.98
2023-04-30T05:07:23.558Z,14.01
2023-04-30T05:08:23.306Z,14.06
2023-04-30T05:09:23.204Z,14.09
2023-04-30T05:10:23.982Z,14.14
2023-04-30T05:11:23.223Z,14.20
2023-04-30T05:12:23.186Z,14.25
2023-04-30T05:13:23.618Z,14.29
2023-04-30T05:14:23.347Z,14.35
2023-04-30T05:15:23.310Z,14.37
2023-04-30T05:16:23.086Z,14.42
2023-04-30T05:17:23.840Z,14.46
2023-04-30T05:18:23.968Z,14.50
2023-04-30T05:19:23.934Z,14.56
2023-04-30T05:20:23.650Z,14.63
2023-04-30T05:21:23.137Z,14.69
2023-04-30T05:22:23.481Z,14.77
2023-04-30T05:23:23.033Z,14.77
2023-04-30T05:24:23.553Z,14.81
2023-04-30T05:25:23.397Z,14.88
2023-04-30T05:26:23.356Z,14.97
2023-04-30T05:27:23.214Z,15.05
2023-04-30T05:28:28.649Z,15.14
2023-04-30T05:29:23.542Z,15.21
2023-04-30T05:30:23.671Z,15.29
2023-04-30T05:31:23.711Z,15.35
2023-04-30T05:32:23.852Z,15.34
2023-04-30T05:33:23.590Z,15.39
2023-04-30T05:34:23.395Z,15.46
2023-04-30T05:35:23.222Z,15.51
2023-04-30T05:36:23.665Z,15.54
2023-04-30T05:37:23.145Z,15.60
2023-04-30T05:38:23.586Z,15.67
2023-04-30T05:39:23.221Z,15.74
2023-04-30T05:40:23.815Z,15.79
2023-04-30T05:41:23.576Z,15.84
2023-04-30T05:42:23.054Z,15.90
2023-04-30T05:43:23.295Z,15.97
2023-04-30T05:44:23.615Z,16.02
2023-04-30T05:45:23.642Z,16.09
2023-04-30T05:46:23.406Z,16.13
2023-04-30T05:47:23.180Z,16.19
2023-04-30T05:48:23.790Z,16.23
2023-04-30T05:49:23.415Z,16.29
2023-04-30T05:50:23.949Z,16.36
2023-04-30T05:51:23.489Z,16.44
2023-04-30T05:52:23.287Z,16.52
2023-04-30T05:53:23.132Z,16.57
2023-04-30T05:54:23.772Z,16.65
2023-04-30T05:55:23.696Z,16.72
2023-04-30T05:56:23.128Z,16.78
2023-04-30T05:57:23.779Z,16.85
2023-04-30T05:58:23.639Z,16.93
2023-04-30T05:59:23.437Z,16.99
2023-04-30T06:00:23.705Z,17.07
2023-04-30T06:01:23.461Z,17.19
2023-04-30T06:02:23.422Z,17.28
2023-04-30T06:03:23.511Z,17.39
2023-04-30T06:04:23.238Z,17.47
2023-04-30T06:05:24.039Z,17.56
2023-04-30T06:06:23.507Z,17.67
2023-04-30T06:07:23.704Z,17.79
2023-04-30T06:08:23.630Z,17.90
2023-04-30T06:09:23.324Z,18.02
2023-04-30T06:10:23.632Z,18.17
2023-04-30T06:11:23.810Z,18.29
2023-04-30T06:12:23.009Z,18.44
2023-04-30T06:13:23.460Z,18.57
2023-04-30T06:14:23.081Z,18.70
2023-04-30T06:15:23.957Z,18.84
2023-04-30T06:16:23.690Z,18.94
2023-04-30T06:17:23.668Z,19.07
2023-04-30T06:18:23.334Z,19.19
2023-04-30T06:19:22.965Z,19.26
2023-04-30T06:20:23.745Z,19.38
2023-04-30T06:21:23.499Z,19.47
2023-04-30T06:22:23.187Z,19.54
2023-04-30T06:23:23.569Z,19.61
2023-04-30T06:24:23.184Z,19.65
2023-04-30T06:25:23.610Z,19.74
2023-04-30T06:26:23.375Z,19.79
2023-04-30T06:27:22.988Z,19.86
2023-04-30T06:28:23.332Z,19.93
2023-04-30T06:29:23.575Z,19.96
2023-04-30T06:30:23.590Z,20
2023-04-30T06:31:23.130Z,20.04
2023-04-30T06:32:23.953Z,20.05
2023-04-30T06:33:23.124Z,20.07
2023-04-30T06:34:23.521Z,20.12
2023-04-30T06:35:23.126Z,20.15
2023-04-30T06:36:23.452Z,20.18
2023-04-30T06:37:22.920Z,20.23
2023-04-30T06:38:23.313Z,20.27
2023-04-30T06:39:23.722Z,20.29
2023-04-30T06:40:23.424Z,20.28
2023-04-30T06:41:23.089Z,20.31
2023-04-30T06:42:23.285Z,20.31
2023-04-30T06:43:23.127Z,20.30
2023-04-30T06:44:23.458Z,20.30
2023-04-30T06:45:23.361Z,20.26
2023-04-30T06:46:23.057Z,20.24
2023-04-30T06:47:23.819Z,20.23
2023-04-30T06:48:23.471Z,20.19
2023-04-30T06:49:23.392Z,20.19
2023-04-30T06:50:23.541Z,20.19
2023-04-30T06:51:23.595Z,20.18
2023-04-30T06:52:23.353Z,20.19
2023-04-30T06:53:23.456Z,20.16
2023-04-30T06:54:23.320Z,20.14
2023-04-30T06:55:23.516Z,20.12
2023-04-30T06:57:27.343Z,20.11
2023-04-30T06:58:23.410Z,20.09
2023-04-30T06:59:23.390Z,20.04
2023-04-30T07:00:24.783Z,19.99
2023-04-30T07:01:23.774Z,19.95
2023-04-30T07:02:23.668Z,19.94
2023-04-30T07:03:23.871Z,19.95
2023-04-30T07:04:23.187Z,19.96
2023-04-30T07:05:23.367Z,19.95
2023-04-30T07:06:23.949Z,19.96
2023-04-30T07:07:23.603Z,19.98
2023-04-30T07:08:23.786Z,19.95
2023-04-30T07:09:23.649Z,19.96
2023-04-30T07:10:23.546Z,19.99
2023-04-30T07:11:23.116Z,19.98
2023-04-30T07:12:23.778Z,19.96
2023-04-30T07:13:23.345Z,19.92
2023-04-30T07:14:24.254Z,19.88
2023-04-30T07:15:23.688Z,19.83
2023-04-30T07:16:23.290Z,19.84
2023-04-30T07:17:24.205Z,19.85
2023-04-30T07:18:23.236Z,19.88
2023-04-30T07:19:23.157Z,19.85
2023-04-30T07:20:24.028Z,19.79
2023-04-30T07:21:23.468Z,19.82
2023-04-30T07:22:23.186Z,19.80
2023-04-30T07:23:23.654Z,19.81
2023-04-30T07:24:23.213Z,19.78
2023-04-30T07:25:23.733Z,19.75
2023-04-30T07:26:23.204Z,19.72
2023-04-30T07:27:23.741Z,19.74
2023-04-30T07:28:23.371Z,19.72
2023-04-30T07:29:22.992Z,19.69
2023-04-30T07:30:25.139Z,19.67
2023-04-30T07:31:23.172Z,19.67
2023-04-30T07:32:23.212Z,19.68
2023-04-30T07:33:22.799Z,19.72
2023-04-30T07:34:23.260Z,19.73
2023-04-30T07:35:23.776Z,19.77
2023-04-30T07:36:23.536Z,19.76
2023-04-30T07:37:23.015Z,19.77
2023-04-30T07:38:23.134Z,19.79
2023-04-30T07:39:23.460Z,19.82
2023-04-30T07:40:34.946Z,19.86
2023-04-30T07:41:23.671Z,19.87
2023-04-30T07:42:23.331Z,19.88
2023-04-30T07:43:23.151Z,19.91
2023-04-30T07:44:23.442Z,19.94
2023-04-30T07:45:23.338Z,20.06
2023-04-30T07:46:23.288Z,20.06
2023-04-30T07:47:23.341Z,20.02
2023-04-30T07:48:23.253Z,19.99
2023-04-30T07:49:23.711Z,20.04
2023-04-30T07:50:23.701Z,20.09
2023-04-30T07:51:23.865Z,20.11
2023-04-30T07:52:23.547Z,20.05
2023-04-30T07:53:23.361Z,20.00
2023-04-30T07:54:23.667Z,19.98
2023-04-30T07:55:23.469Z,20.01
2023-04-30T07:56:23.544Z,19.95
2023-04-30T07:57:23.571Z,19.92
2023-04-30T07:58:23.679Z,19.97
2023-04-30T07:59:23.312Z,19.95
2023-04-30T08:00:23.622Z,19.97
2023-04-30T08:01:23.914Z,19.93
2023-04-30T08:02:24.034Z,19.87
2023-04-30T08:03:31.418Z,19.87
2023-04-30T08:04:23.453Z,19.83
2023-04-30T08:05:24.101Z,19.82
2023-04-30T08:06:23.141Z,19.85
2023-04-30T08:07:31.828Z,19.82
2023-04-30T08:08:23.343Z,19.76
2023-04-30T08:09:23.261Z,19.81
2023-04-30T08:10:24.028Z,19.79
2023-04-30T08:11:23.888Z,19.77
2023-04-30T08:12:23.694Z,19.71
2023-04-30T08:13:23.577Z,19.69
2023-04-30T08:14:23.399Z,19.70
2023-04-30T08:15:23.556Z,19.76
2023-04-30T08:16:23.395Z,19.81
2023-04-30T08:17:23.399Z,19.83
2023-04-30T08:18:23.343Z,19.75
2023-04-30T08:19:23.122Z,19.72
2023-04-30T08:20:23.971Z,19.67
2023-04-30T08:21:23.850Z,19.69
2023-04-30T08:22:23.672Z,19.79
2023-04-30T08:23:23.433Z,19.77
2023-04-30T08:24:23.327Z,19.83
2023-04-30T08:25:23.855Z,19.87
2023-04-30T08:26:23.452Z,19.91
2023-04-30T08:27:23.286Z,19.90
2023-04-30T08:28:23.303Z,19.92
2023-04-30T08:29:22.979Z,19.90
2023-04-30T08:30:24.333Z,19.89
2023-04-30T08:31:42.677Z,19.83
2023-04-30T08:32:23.800Z,19.88
2023-04-30T08:33:23.281Z,19.95
2023-04-30T08:34:23.891Z,19.94
2023-04-30T08:35:23.721Z,20.03
2023-04-30T08:36:23.465Z,20.09
2023-04-30T08:37:23.248Z,20.13
2023-04-30T08:38:23.458Z,20.18
2023-04-30T08:39:23.793Z,20.24
2023-04-30T08:40:33.795Z,20.27
2023-04-30T08:41:23.610Z,20.36
2023-04-30T08:42:23.283Z,20.39
2023-04-30T08:43:23.774Z,20.44
2023-04-30T08:44:23.988Z,20.48
2023-04-30T08:45:24.403Z,20.48
2023-04-30T08:46:23.555Z,20.50
2023-04-30T08:47:23.482Z,20.53
2023-04-30T08:48:23.375Z,20.59
2023-04-30T08:49:24.725Z,20.77
2023-04-30T08:50:23.863Z,20.78
2023-04-30T08:51:23.561Z,20.78
2023-04-30T08:52:23.908Z,20.74
2023-04-30T08:53:23.517Z,20.65
2023-04-30T08:54:23.315Z,20.65
2023-04-30T08:55:24.174Z,20.77
2023-04-30T08:56:25.203Z,20.87
2023-04-30T08:57:23.264Z,20.93
2023-04-30T08:58:23.260Z,20.94
2023-04-30T08:59:23.712Z,20.98
2023-04-30T09:00:24.594Z,21.04
2023-04-30T09:02:26.669Z,21.10
2023-04-30T09:03:23.425Z,21.04
2023-04-30T09:04:23.509Z,21.07
2023-04-30T09:05:23.656Z,21.09
2023-04-30T09:06:23.542Z,21.09
2023-04-30T09:07:23.548Z,21.02
2023-04-30T09:08:23.301Z,21
2023-04-30T09:09:23.313Z,20.96
2023-04-30T09:10:24.034Z,20.95
2023-04-30T09:11:23.829Z,20.95
2023-04-30T09:12:23.413Z,21.03
2023-04-30T09:13:23.928Z,21.12
2023-04-30T09:14:23.511Z,21.13
2023-04-30T09:15:23.775Z,21.17
2023-04-30T09:16:23.808Z,21.22
2023-04-30T09:17:23.817Z,21.41
2023-04-30T09:18:23.669Z,21.50
2023-04-30T09:19:23.468Z,21.43
2023-04-30T09:20:23.733Z,21.37
2023-04-30T09:21:23.629Z,21.55
2023-04-30T09:22:23.357Z,21.47
2023-04-30T09:23:23.208Z,21.36
2023-04-30T09:24:23.844Z,21.29
2023-04-30T09:25:23.703Z,21.32
2023-04-30T09:26:23.488Z,21.40
2023-04-30T09:27:23.292Z,21.40
2023-04-30T09:28:23.567Z,21.39
2023-04-30T09:29:23.639Z,21.33
2023-04-30T09:30:23.557Z,21.40
2023-04-30T09:31:23.337Z,21.46
2023-04-30T09:32:23.360Z,21.64
2023-04-30T09:33:23.210Z,21.79
2023-04-30T09:34:23.692Z,21.81
2023-04-30T09:35:23.753Z,21.79
2023-04-30T09:36:23.719Z,21.78
2023-04-30T09:37:23.364Z,21.77
2023-04-30T09:38:23.065Z,21.88
2023-04-30T09:39:23.599Z,21.96
2023-04-30T09:40:23.567Z,22.09
2023-04-30T09:41:23.475Z,22.01
2023-04-30T09:42:23.159Z,21.97
2023-04-30T09:43:23.733Z,21.96
2023-04-30T09:44:23.288Z,21.95
2023-04-30T09:45:24.139Z,21.92
2023-04-30T09:46:24.128Z,22.02
2023-04-30T09:47:23.399Z,22.07
2023-04-30T09:48:23.277Z,22.07
2023-04-30T09:49:23.244Z,22.27
2023-04-30T09:50:23.983Z,22.28
2023-04-30T09:51:23.400Z,22.29
2023-04-30T09:52:23.411Z,22.35
2023-04-30T09:53:23.621Z,22.40
2023-04-30T09:54:23.464Z,22.46
2023-04-30T09:55:24.020Z,22.60
2023-04-30T09:56:23.821Z,22.57
2023-04-30T09:57:23.333Z,22.53
2023-04-30T09:58:24.012Z,22.59
2023-04-30T09:59:24.004Z,22.64
2023-04-30T10:00:24.579Z,22.72
2023-04-30T10:01:23.864Z,22.77
2023-04-30T10:02:23.735Z,22.85
2023-04-30T10:03:24.020Z,22.97
2023-04-30T10:04:22.926Z,23.04
2023-04-30T10:05:23.905Z,23.12
2023-04-30T10:06:24.045Z,23.15
2023-04-30T10:07:23.567Z,23.32
2023-04-30T10:08:23.408Z,23.39
2023-04-30T10:09:23.427Z,23.34
2023-04-30T10:10:23.776Z,23.35
2023-04-30T10:11:23.566Z,23.42
2023-04-30T10:12:23.179Z,23.45
2023-04-30T10:13:23.746Z,23.38
2023-04-30T10:14:23.677Z,23.45
2023-04-30T10:15:23.891Z,23.61
2023-04-30T10:16:23.758Z,23.53
2023-04-30T10:17:23.681Z,23.56
2023-04-30T10:18:23.320Z,23.57
2023-04-30T10:19:23.756Z,23.52
2023-04-30T10:20:23.542Z,23.46
2023-04-30T10:21:23.311Z,23.58
2023-04-30T10:22:23.935Z,23.63
2023-04-30T10:23:23.593Z,23.75
2023-04-30T10:24:23.659Z,23.80
2023-04-30T10:25:25.283Z,24.11
2023-04-30T10:26:23.257Z,24.10
2023-04-30T10:27:23.619Z,24.01
2023-04-30T10:28:23.132Z,24.03
2023-04-30T10:29:23.827Z,24.02
2023-04-30T10:30:24.332Z,23.98
2023-04-30T10:31:23.259Z,24.02
2023-04-30T10:32:23.278Z,24.09
2023-04-30T10:33:23.117Z,24.18
2023-04-30T10:34:22.982Z,24.26
2023-04-30T10:35:23.648Z,24.31
2023-04-30T10:36:23.146Z,24.29
2023-04-30T10:37:23.793Z,24.36
2023-04-30T10:38:23.623Z,24.36
2023-04-30T10:39:23.420Z,24.52
2023-04-30T10:40:23.587Z,24.62
2023-04-30T10:41:23.451Z,24.71
2023-04-30T10:42:23.207Z,24.77
2023-04-30T10:43:23.797Z,24.76
2023-04-30T10:44:23.760Z,24.80
2023-04-30T10:45:24.024Z,24.85
2023-04-30T10:46:23.933Z,24.72
2023-04-30T10:47:24.237Z,24.68
2023-04-30T10:48:23.414Z,24.62
2023-04-30T10:49:23.287Z,24.68
2023-04-30T10:50:23.605Z,24.70
2023-04-30T10:51:23.532Z,24.89
2023-04-30T10:52:23.239Z,24.96
2023-04-30T10:53:23.358Z,24.98
2023-04-30T10:54:23.609Z,25.02
2023-04-30T10:55:24.005Z,24.87
2023-04-30T10:56:23.506Z,24.74
2023-04-30T10:57:23.454Z,24.71
2023-04-30T10:58:23.552Z,25.15
2023-04-30T10:59:23.442Z,25.20
2023-04-30T11:00:24.192Z,24.81
2023-04-30T11:01:23.421Z,24.65
2023-04-30T11:02:23.779Z,24.61
2023-04-30T11:03:24.123Z,24.47
2023-04-30T11:04:24.022Z,24.46
2023-04-30T11:05:23.567Z,24.40
2023-04-30T11:06:23.258Z,24.55
2023-04-30T11:07:23.434Z,24.54
2023-04-30T11:08:23.597Z,24.61
2023-04-30T11:09:23.301Z,24.73
2023-04-30T11:10:23.373Z,24.59
2023-04-30T11:11:23.299Z,24.69
2023-04-30T11:12:23.442Z,24.77
2023-04-30T11:13:23.631Z,24.63
2023-04-30T11:14:23.487Z,24.57
2023-04-30T11:15:23.815Z,24.51
2023-04-30T11:16:23.827Z,24.48
2023-04-30T11:17:23.344Z,24.61
2023-04-30T11:18:23.320Z,24.68
2023-04-30T11:19:23.446Z,24.70
2023-04-30T11:20:23.709Z,24.72
2023-04-30T11:21:23.601Z,24.72
2023-04-30T11:22:23.442Z,24.87
2023-04-30T11:23:32.243Z,25.26
2023-04-30T11:24:23.928Z,25.22
2023-04-30T11:25:23.767Z,25.27
2023-04-30T11:26:23.641Z,25.35
2023-04-30T11:27:23.444Z,25.36
2023-04-30T11:28:23.313Z,25.34
2023-04-30T11:29:23.484Z,25.31
2023-04-30T11:30:23.610Z,25.45
2023-04-30T11:31:23.781Z,25.50
2023-04-30T11:32:23.780Z,25.40
2023-04-30T11:33:23.628Z,25.39
2023-04-30T11:34:23.654Z,25.43
2023-04-30T11:35:23.703Z,25.52
2023-04-30T11:36:23.492Z,25.51
2023-04-30T11:37:25.751Z,25.52
2023-04-30T11:38:23.437Z,25.57
2023-04-30T11:39:24.125Z,25.57
2023-04-30T11:40:23.684Z,25.57
2023-04-30T11:41:23.531Z,25.64
2023-04-30T11:42:23.448Z,25.71
2023-04-30T11:43:23.346Z,25.67
2023-04-30T11:44:23.446Z,25.75
2023-04-30T11:45:23.765Z,25.79
2023-04-30T11:46:23.664Z,25.93
2023-04-30T11:47:23.482Z,26.04
2023-04-30T11:48:23.550Z,25.85
2023-04-30T11:49:23.371Z,25.76
2023-04-30T11:50:23.567Z,25.62
2023-04-30T11:51:23.111Z,25.50
2023-04-30T11:52:23.683Z,25.70
2023-04-30T11:53:23.298Z,25.82
2023-04-30T11:54:23.793Z,25.88
2023-04-30T11:55:23.701Z,25.67
2023-04-30T11:56:23.492Z,25.54
2023-04-30T11:57:23.742Z,25.51
2023-04-30T11:58:23.400Z,25.45
2023-04-30T11:59:23.356Z,25.55
2023-04-30T12:00:23.956Z,25.65
2023-04-30T12:01:24.033Z,25.73
2023-04-30T12:02:23.682Z,25.89
2023-04-30T12:03:23.623Z,26.13
2023-04-30T12:04:23.883Z,26.03
2023-04-30T12:05:23.933Z,25.85
2023-04-30T12:06:23.495Z,25.75
2023-04-30T12:07:23.110Z,25.65
2023-04-30T12:08:23.718Z,25.66
2023-04-30T12:09:23.306Z,25.67
2023-04-30T12:10:23.230Z,25.68
2023-04-30T12:11:23.579Z,25.75
2023-04-30T12:12:23.109Z,25.78
2023-04-30T12:13:23.340Z,25.79
2023-04-30T12:14:23.849Z,25.91
2023-04-30T12:15:23.701Z,26.07
2023-04-30T12:17:27.398Z,26.25
2023-04-30T12:18:23.201Z,26.30
2023-04-30T12:19:23.649Z,26.31
2023-04-30T12:20:23.494Z,26.29
2023-04-30T12:21:23.175Z,26.41
2023-04-30T12:22:23.818Z,26.50
2023-04-30T12:23:23.165Z,26.61
2023-04-30T12:24:23.448Z,26.67
2023-04-30T12:25:23.245Z,26.79
2023-04-30T12:26:23.007Z,27
2023-04-30T12:27:23.519Z,26.94
2023-04-30T12:28:23.137Z,26.95
2023-04-30T12:29:23.517Z,26.95
2023-04-30T12:30:23.582Z,26.98
2023-04-30T12:31:23.370Z,27.03
2023-04-30T12:32:23.238Z,27.12
2023-04-30T12:33:23.220Z,27.22
2023-04-30T12:34:23.646Z,27.29
2023-04-30T12:35:23.379Z,27.29
2023-04-30T12:36:23.071Z,27.28
2023-04-30T12:37:23.241Z,27.21
2023-04-30T12:38:23.136Z,27.44
2023-04-30T12:39:28.640Z,27.39
2023-04-30T12:40:23.500Z,27.40
2023-04-30T12:41:23.031Z,27.31
2023-04-30T12:42:23.403Z,27.17
2023-04-30T12:43:23.075Z,27.32
2023-04-30T12:44:23.414Z,27.32
2023-04-30T12:45:23.941Z,27.26
2023-04-30T12:46:23.743Z,27.26
2023-04-30T12:47:23.450Z,27.20
2023-04-30T12:48:23.713Z,27.03
2023-04-30T12:49:31.143Z,26.90
2023-04-30T12:50:24.173Z,26.95
2023-04-30T12:51:31.280Z,27.04
2023-04-30T12:52:23.111Z,27.08
2023-04-30T12:53:31.168Z,27.16
2023-04-30T12:54:23.644Z,27.41
2023-04-30T12:55:23.370Z,27.37
2023-04-30T12:56:23.359Z,27.5